Time;durP1;ratioP1;P1;durP2;ratioP2;P2;SDS_P1;SDS_P2;PMS_P1;PMS_P2;Temp;Humidity;BMP_temperature;BMP_pressure;BME280_temperature;BME280_humidity;BME280_pressure;Samples;Min_cycle;Max_cycle;Signal;HPM_P1;HPM_P2
2023/11/10 00:00:12;;;;;;;8.02;0.57;;;;;;;6.43;100.00;97606.56;5048594;28;20021;-75
2023/11/10 00:02:44;;;;;;;3.20;0.45;;;;;;;6.41;100.00;97586.31;5043439;28;20032;-76
2023/11/10 00:05:10;;;;;;;0.55;0.20;;;;;;;6.49;100.00;97564.59;5057235;28;20021;-76
2023/11/10 00:07:36;;;;;;;0.98;0.13;;;;;;;6.48;100.00;97581.75;5050579;28;20025;-76
2023/11/10 00:10:05;;;;;;;0.28;0.20;;;;;;;6.50;100.00;97579.69;5048693;28;20214;-75
2023/11/10 00:12:31;;;;;;;1.40;0.20;;;;;;;6.41;100.00;97570.19;5046073;28;20026;-75
2023/11/10 00:14:57;;;;;;;1.27;0.20;;;;;;;6.47;100.00;97572.03;5042241;28;20017;-77
2023/11/10 00:17:23;;;;;;;0.47;0.22;;;;;;;6.53;100.00;97587.34;5049425;28;20114;-76
2023/11/10 00:19:49;;;;;;;0.77;0.32;;;;;;;6.48;100.00;97592.50;5047901;28;20033;-75
2023/11/10 00:22:14;;;;;;;1.15;0.20;;;;;;;6.51;100.00;97587.53;5047306;28;20199;-75
2023/11/10 00:24:40;;;;;;;2.60;0.20;;;;;;;6.51;100.00;97581.34;5048659;28;20029;-74
2023/11/10 00:27:07;;;;;;;2.58;0.20;;;;;;;6.35;100.00;97580.72;5048939;28;20025;-74
2023/11/10 00:29:33;;;;;;;1.15;0.38;;;;;;;6.35;100.00;97577.22;5049053;28;20020;-75
2023/11/10 00:31:59;;;;;;;0.88;0.22;;;;;;;6.28;100.00;97566.44;5048956;28;20052;-75
2023/11/10 00:34:24;;;;;;;1.88;0.28;;;;;;;6.45;100.00;97598.31;5048105;28;20325;-76
2023/11/10 00:36:49;;;;;;;0.50;0.20;;;;;;;6.41;100.00;97583.63;5048417;28;20024;-76
2023/11/10 00:39:17;;;;;;;0.73;0.22;;;;;;;6.38;100.00;97597.47;5045716;28;20017;-75
2023/11/10 00:41:44;;;;;;;0.30;0.22;;;;;;;6.29;100.00;97592.31;5055548;28;20801;-77
2023/11/10 00:44:10;;;;;;;0.68;0.20;;;;;;;6.34;100.00;97603.25;5047681;28;20022;-74
2023/11/10 00:46:35;;;;;;;0.90;0.22;;;;;;;6.34;100.00;97588.97;5043519;28;20108;-72
2023/11/10 00:49:00;;;;;;;0.90;0.30;;;;;;;6.39;100.00;97580.31;5046402;28;20032;-73
2023/11/10 00:51:26;;;;;;;1.02;0.20;;;;;;;6.49;100.00;97589.59;5047766;28;20025;-73
2023/11/10 00:53:51;;;;;;;0.20;0.10;;;;;;;6.48;100.00;97581.75;5047755;28;20009;-74
2023/11/10 00:56:16;;;;;;;0.90;0.40;;;;;;;6.44;100.00;97567.06;5045226;28;20029;-76
2023/11/10 00:58:41;;;;;;;0.93;0.32;;;;;;;6.39;100.00;97565.00;5044770;28;20025;-75
2023/11/10 01:01:07;;;;;;;0.70;0.22;;;;;;;6.50;100.00;97568.97;5038163;28;20040;-78
2023/11/10 01:03:33;;;;;;;0.75;0.30;;;;;;;6.47;100.00;97562.13;5044764;28;20029;-75
2023/11/10 01:05:58;;;;;;;1.08;0.32;;;;;;;6.52;100.00;97565.03;5038537;28;20025;-76
2023/11/10 01:08:23;;;;;;;1.35;0.40;;;;;;;6.38;100.00;97551.81;5049581;28;20139;-75
2023/11/10 01:10:49;;;;;;;4.05;0.35;;;;;;;6.51;100.00;97565.22;5066414;28;20041;-76
2023/11/10 01:13:14;;;;;;;1.23;0.60;;;;;;;6.39;100.00;97545.38;5050955;28;20047;-75
2023/11/10 01:15:40;;;;;;;1.42;0.70;;;;;;;6.46;100.00;97562.31;5042561;28;20021;-76
2023/11/10 01:18:06;;;;;;;0.75;0.40;;;;;;;6.40;100.00;97541.69;5044827;28;20041;-75
2023/11/10 01:20:31;;;;;;;0.57;0.50;;;;;;;6.48;100.00;97547.66;5045092;28;20032;-76
2023/11/10 01:22:57;;;;;;;2.65;0.98;;;;;;;6.42;100.00;97535.06;5046515;28;20056;-76
2023/11/10 01:25:22;;;;;;;1.23;0.40;;;;;;;6.43;100.00;97539.41;5048386;28;20025;-75
2023/11/10 01:27:48;;;;;;;3.95;0.70;;;;;;;6.47;100.00;97545.16;5038246;28;20029;-76
2023/11/10 01:30:13;;;;;;;1.27;0.73;;;;;;;6.47;100.00;97539.78;5048547;28;20331;-76
2023/11/10 01:32:39;;;;;;;1.45;0.50;;;;;;;6.45;100.00;97542.69;5048799;28;20021;-75
2023/11/10 01:35:04;;;;;;;0.65;0.60;;;;;;;6.36;100.00;97520.56;5045639;28;20326;-75
2023/11/10 01:37:30;;;;;;;2.05;0.70;;;;;;;6.53;100.00;97538.97;5045568;28;20025;-76
2023/11/10 01:39:55;;;;;;;1.60;0.80;;;;;;;6.47;100.00;97527.22;5053867;28;20021;-74
2023/11/10 01:42:21;;;;;;;1.67;0.73;;;;;;;6.54;100.00;97529.88;5046048;28;20017;-76
2023/11/10 01:44:46;;;;;;;1.90;0.90;;;;;;;6.63;100.00;97535.84;5043393;28;20041;-76
2023/11/10 01:47:11;;;;;;;1.00;0.43;;;;;;;6.66;100.00;97509.41;5030578;28;20022;-75
2023/11/10 01:49:38;;;;;;;0.75;0.60;;;;;;;6.82;100.00;97520.72;5044449;28;20032;-75
2023/11/10 01:52:04;;;;;;;1.63;0.75;;;;;;;6.72;100.00;97497.78;5047187;28;20037;-74
2023/11/10 01:54:34;;;;;;;1.10;0.60;;;;;;;6.87;100.00;97513.69;5047219;28;20023;-76
2023/11/10 01:57:00;;;;;;;4.25;0.70;;;;;;;6.88;100.00;97506.44;5047040;28;20021;-76
2023/11/10 01:59:26;;;;;;;0.80;0.52;;;;;;;6.91;100.00;97511.38;5043462;28;20028;-77
2023/11/10 02:01:51;;;;;;;1.02;0.60;;;;;;;6.98;100.00;97517.56;5041416;28;20056;-74
2023/11/10 02:04:17;;;;;;;1.13;0.52;;;;;;;6.85;100.00;97490.72;5044050;28;20017;-74
2023/11/10 02:06:44;;;;;;;0.55;0.45;;;;;;;6.88;100.00;97501.88;5048486;28;20029;-74
2023/11/10 02:09:10;;;;;;;0.55;0.55;;;;;;;6.97;100.00;97510.56;5058312;28;20020;-75
2023/11/10 02:11:39;;;;;;;0.63;0.50;;;;;;;6.98;100.00;97517.56;5055172;28;20318;-77
2023/11/10 02:14:12;;;;;;;2.25;0.60;;;;;;;6.97;100.00;97508.69;5045289;28;20017;-76
2023/11/10 02:16:38;;;;;;;0.90;0.45;;;;;;;7.00;100.00;97502.06;5037945;28;20029;-76
2023/11/10 02:19:05;;;;;;;1.88;0.50;;;;;;;6.95;100.00;97480.38;5043280;28;20018;-77
2023/11/10 02:21:31;;;;;;;2.75;0.82;;;;;;;6.89;100.00;97460.53;5035665;28;20025;-77
2023/11/10 02:24:00;;;;;;;1.60;0.70;;;;;;;7.03;100.00;97483.63;5045304;28;20021;-76
2023/11/10 02:26:25;;;;;;;0.50;0.43;;;;;;;7.12;100.00;97494.13;5037515;28;20026;-76
2023/11/10 02:28:51;;;;;;;0.93;0.68;;;;;;;6.98;100.00;97477.25;5037356;28;20148;-74
2023/11/10 02:31:16;;;;;;;1.45;0.63;;;;;;;6.88;100.00;97455.34;5044091;28;20409;-76
2023/11/10 02:33:41;;;;;;;1.77;0.50;;;;;;;6.99;100.00;97481.56;5041028;28;20037;-76
2023/11/10 02:36:08;;;;;;;0.65;0.32;;;;;;;7.12;100.00;97488.75;5038193;28;20060;-76
2023/11/10 02:38:34;;;;;;;0.82;0.40;;;;;;;7.16;100.00;97477.38;5038186;28;20025;-74
2023/11/10 02:41:00;;;;;;;0.50;0.35;;;;;;;7.15;100.00;97474.88;5041170;28;20323;-75
2023/11/10 02:43:25;;;;;;;1.00;0.50;;;;;;;7.15;100.00;97469.50;5042022;28;20089;-74
2023/11/10 02:45:51;;;;;;;2.33;0.57;;;;;;;7.05;100.00;97459.22;5047497;28;20024;-75
2023/11/10 02:48:16;;;;;;;1.17;0.47;;;;;;;6.97;100.00;97452.22;5054265;28;20024;-74
2023/11/10 02:50:44;;;;;;;0.57;0.40;;;;;;;6.98;100.00;97436.91;5045897;28;20032;-74
2023/11/10 02:53:09;;;;;;;0.63;0.40;;;;;;;7.02;100.00;97455.09;5044736;28;20037;-74
2023/11/10 02:55:34;;;;;;;1.10;0.50;;;;;;;7.00;100.00;97432.97;5037872;28;20096;-75
2023/11/10 02:57:59;;;;;;;0.73;0.63;;;;;;;7.12;100.00;97459.19;5047719;28;20026;-74
2023/11/10 03:00:25;;;;;;;1.08;0.40;;;;;;;7.09;100.00;97460.44;5048599;28;20064;-75
2023/11/10 03:02:50;;;;;;;0.25;0.22;;;;;;;7.13;100.00;97475.13;5047836;28;20361;-74
2023/11/10 03:05:16;;;;;;;0.75;0.40;;;;;;;7.11;100.00;97474.50;5048627;28;20089;-74
2023/11/10 03:07:41;;;;;;;0.93;0.40;;;;;;;7.02;100.00;97483.81;5046811;28;20036;-74
2023/11/10 03:10:08;;;;;;;0.47;0.40;;;;;;;7.00;100.00;97473.31;5048349;28;20029;-74
2023/11/10 03:12:35;;;;;;;1.48;0.50;;;;;;;7.02;100.00;97473.91;5048289;28;20045;-74
2023/11/10 03:15:00;;;;;;;1.17;0.68;;;;;;;7.07;100.00;97478.63;5054941;28;20018;-74
2023/11/10 03:17:29;;;;;;;0.63;0.50;;;;;;;6.98;100.00;97464.63;5047507;28;20026;-74
2023/11/10 03:19:55;;;;;;;0.55;0.30;;;;;;;6.97;100.00;97478.28;5050936;28;20032;-74
2023/11/10 03:22:20;;;;;;;1.10;0.47;;;;;;;6.83;100.00;97455.16;5052924;28;20018;-74
2023/11/10 03:24:46;;;;;;;1.08;0.43;;;;;;;7.01;100.00;97483.00;5045128;28;20349;-76
2023/11/10 03:27:11;;;;;;;1.20;0.60;;;;;;;6.90;100.00;97467.53;5037121;28;20017;-74
2023/11/10 03:29:37;;;;;;;0.98;0.43;;;;;;;6.98;100.00;97479.94;5052634;28;20028;-76
2023/11/10 03:32:04;;;;;;;0.80;0.55;;;;;;;6.95;100.00;97474.97;5045139;28;20109;-74
2023/11/10 03:34:30;;;;;;;2.33;0.30;;;;;;;6.98;100.00;97480.75;5047540;28;20045;-75
2023/11/10 03:36:55;;;;;;;2.15;0.50;;;;;;;6.88;100.00;97455.34;5051877;28;20032;-74
2023/11/10 03:39:20;;;;;;;0.88;0.50;;;;;;;6.97;100.00;97483.66;5050610;28;20315;-76
2023/11/10 03:41:46;;;;;;;3.55;0.70;;;;;;;6.99;100.00;97470.81;5042033;28;20092;-76
2023/11/10 03:44:12;;;;;;;1.65;0.70;;;;;;;6.88;100.00;97447.28;5050640;28;20097;-75
2023/11/10 03:46:38;;;;;;;3.70;0.70;;;;;;;6.92;100.00;97451.22;5049723;28;20070;-75
2023/11/10 03:49:03;;;;;;;1.80;0.60;;;;;;;6.99;100.00;97449.31;5049163;28;20017;-76
2023/11/10 03:51:28;;;;;;;2.08;0.60;;;;;;;6.96;100.00;97455.94;5049455;28;20025;-76
2023/11/10 03:53:54;;;;;;;1.25;0.60;;;;;;;6.94;100.00;97449.97;5048070;28;20013;-75
2023/11/10 03:56:19;;;;;;;4.75;0.77;;;;;;;7.11;100.00;97477.19;5042116;28;20196;-75
2023/11/10 03:58:44;;;;;;;1.02;0.60;;;;;;;7.05;100.00;97469.13;5050681;28;20026;-76
2023/11/10 04:01:13;;;;;;;2.03;0.63;;;;;;;7.15;100.00;97474.88;5051521;28;20025;-74
2023/11/10 04:03:39;;;;;;;1.95;0.50;;;;;;;7.11;100.00;97469.13;5050825;28;20361;-74
2023/11/10 04:06:05;;;;;;;1.17;0.68;;;;;;;7.10;100.00;97467.47;5047316;28;20028;-75
2023/11/10 04:08:30;;;;;;;1.58;0.60;;;;;;;7.02;100.00;97451.56;5049309;28;20292;-74
2023/11/10 04:10:55;;;;;;;0.85;0.30;;;;;;;7.03;100.00;97437.91;5045160;28;20028;-79
2023/11/10 04:13:21;;;;;;;0.90;0.47;;;;;;;6.99;100.00;97443.94;5043745;28;20017;-77
2023/11/10 04:15:46;;;;;;;1.17;0.40;;;;;;;7.07;100.00;97462.50;5040919;28;20030;-80
2023/11/10 04:18:12;;;;;;;3.03;0.68;;;;;;;7.05;100.00;97450.31;5044228;28;20203;-77
2023/11/10 04:20:39;;;;;;;1.08;0.50;;;;;;;7.14;100.00;97467.84;5045778;28;20021;-77
2023/11/10 04:23:04;;;;;;;0.63;0.30;;;;;;;7.10;100.00;97458.56;5045978;28;20093;-76
2023/11/10 04:25:30;;;;;;;0.90;0.50;;;;;;;6.96;100.00;97444.34;5045557;28;20342;-76
2023/11/10 04:27:55;;;;;;;1.25;0.55;;;;;;;7.15;100.00;97472.19;5043923;28;20092;-78
2023/11/10 04:30:22;;;;;;;0.63;0.43;;;;;;;7.06;100.00;97471.63;5042505;28;20377;-78
2023/11/10 04:32:48;;;;;;;0.93;0.40;;;;;;;7.07;100.00;97472.44;5043563;28;20024;-78
2023/11/10 04:35:13;;;;;;;0.52;0.38;;;;;;;7.07;100.00;97467.88;5044547;28;20040;-76
2023/11/10 04:37:39;;;;;;;2.08;0.38;;;;;;;7.11;100.00;97474.50;5028848;28;20033;-76
2023/11/10 04:40:07;;;;;;;0.88;0.35;;;;;;;7.02;100.00;97459.63;5037766;28;20021;-75
2023/11/10 04:42:32;;;;;;;0.40;0.30;;;;;;;6.98;100.00;97458.41;5045228;28;20029;-75
2023/11/10 04:44:58;;;;;;;0.50;0.30;;;;;;;7.03;100.00;97483.63;5044997;28;20055;-75
2023/11/10 04:47:23;;;;;;;0.70;0.35;;;;;;;6.91;100.00;97461.13;5046647;28;20029;-81
2023/11/10 04:49:48;;;;;;;0.75;0.40;;;;;;;6.90;100.00;97451.41;5046906;28;20021;-82
2023/11/10 04:52:15;;;;;;;0.77;0.20;;;;;;;6.85;100.00;97436.97;5046666;28;20088;-82
2023/11/10 04:54:41;;;;;;;2.70;0.38;;;;;;;6.91;100.00;97466.50;5045213;28;20013;-82
2023/11/10 04:57:07;;;;;;;0.43;0.20;;;;;;;6.95;100.00;97458.84;5050688;28;20021;-83
2023/11/10 04:59:33;;;;;;;0.70;0.30;;;;;;;6.94;100.00;97459.88;5049196;28;20043;-80
2023/11/10 05:01:58;;;;;;;0.93;0.40;;;;;;;7.03;100.00;97461.28;5042186;28;20029;-82
2023/11/10 05:04:24;;;;;;;0.50;0.30;;;;;;;6.97;100.00;97464.84;5045408;28;20461;-83
2023/11/10 05:06:49;;;;;;;1.02;0.50;;;;;;;6.91;100.00;97457.63;5037866;28;20196;-79
2023/11/10 05:09:15;;;;;;;1.60;1.05;;;;;;;6.98;100.00;97453.84;5043097;28;20029;-85
2023/11/10 05:11:40;;;;;;;1.98;1.13;;;;;;;6.83;100.00;97450.59;5046201;28;20261;-82
2023/11/10 05:14:06;;;;;;;4.60;3.30;;;;;;;6.92;100.00;97464.66;5044254;28;20349;-78
2023/11/10 05:16:31;;;;;;;6.82;3.25;;;;;;;6.98;100.00;97471.88;5047132;28;20025;-77
2023/11/10 05:19:00;;;;;;;1.40;0.90;;;;;;;7.00;100.00;97472.47;5037356;28;20029;-75
2023/11/10 05:21:26;;;;;;;1.05;0.73;;;;;;;6.91;100.00;97463.00;5043806;28;20017;-77
2023/11/10 05:23:52;;;;;;;1.40;0.50;;;;;;;6.92;100.00;97478.91;5044716;28;20327;-79
2023/11/10 05:26:17;;;;;;;1.77;0.73;;;;;;;6.94;100.00;97484.06;5030182;28;20029;-79
2023/11/10 05:28:43;;;;;;;1.33;0.80;;;;;;;6.89;100.00;97473.97;5045281;28;20029;-82
2023/11/10 05:31:08;;;;;;;1.83;0.93;;;;;;;7.06;100.00;97498.50;5045068;28;20034;-75
2023/11/10 05:33:34;;;;;;;0.77;0.57;;;;;;;7.04;100.00;97495.19;5043999;28;20029;-72
2023/11/10 05:36:00;;;;;;;1.23;0.80;;;;;;;7.00;100.00;97488.63;5044188;28;20036;-79
2023/11/10 05:38:26;;;;;;;0.10;0.10;;;;;;;6.97;100.00;97481.81;5046575;28;20045;-80
2023/11/10 05:40:51;;;;;;;0.70;0.50;;;;;;;6.99;100.00;97482.38;5046860;28;20029;-82
2023/11/10 05:43:16;;;;;;;0.63;0.38;;;;;;;7.07;100.00;97489.41;5044694;28;20458;-80
2023/11/10 05:45:42;;;;;;;0.82;0.22;;;;;;;7.12;100.00;97491.44;5047210;28;20234;-80
2023/11/10 05:48:07;;;;;;;0.70;0.20;;;;;;;7.02;100.00;97470.38;5036267;28;20286;-76
2023/11/10 05:50:33;;;;;;;1.02;0.20;;;;;;;7.04;100.00;97484.44;5041582;28;20029;-79
2023/11/10 05:52:58;;;;;;;0.47;0.40;;;;;;;7.07;100.00;97478.63;5043029;28;20028;-76
2023/11/10 05:55:24;;;;;;;1.50;0.80;;;;;;;7.10;100.00;97485.44;5039846;28;20030;-79
2023/11/10 05:57:49;;;;;;;0.65;0.35;;;;;;;7.02;100.00;97467.69;5041980;28;20026;-81
2023/11/10 06:00:16;;;;;;;0.52;0.30;;;;;;;6.98;100.00;97467.31;5039285;28;20017;-82
2023/11/10 06:02:42;;;;;;;2.40;0.38;;;;;;;7.09;100.00;97484.63;5040441;28;20033;-80
2023/11/10 06:05:10;;;;;;;0.68;0.50;;;;;;;7.10;100.00;97467.47;5041478;28;20093;-76
2023/11/10 06:07:35;;;;;;;0.20;0.20;;;;;;;7.19;100.00;97493.06;5044782;28;20029;-73
2023/11/10 06:10:01;;;;;;;0.40;0.17;;;;;;;7.17;100.00;97500.53;5047072;28;20132;-74
2023/11/10 06:12:26;;;;;;;0.70;0.30;;;;;;;7.21;100.00;97506.31;5047467;28;20036;-73
2023/11/10 06:14:51;;;;;;;0.20;0.20;;;;;;;7.17;100.00;97503.22;5040411;28;20020;-73
2023/11/10 06:17:19;;;;;;;0.30;0.20;;;;;;;7.09;100.00;97503.47;5041471;28;20021;-73
2023/11/10 06:19:45;;;;;;;0.50;0.30;;;;;;;7.12;100.00;97502.22;5044700;28;20139;-72
2023/11/10 06:22:11;;;;;;;0.82;0.40;;;;;;;7.13;100.00;97518.16;5038661;28;20021;-76
2023/11/10 06:24:37;;;;;;;1.90;0.60;;;;;;;7.03;100.00;97515.06;5039566;28;20029;-77
2023/11/10 06:27:02;;;;;;;1.17;0.50;;;;;;;6.91;100.00;97489.88;5045261;28;20025;-77
2023/11/10 06:29:27;;;;;;;7.18;0.65;;;;;;;7.02;100.00;97524.16;5040484;28;20025;-78
2023/11/10 06:31:53;;;;;;;0.70;0.30;;;;;;;7.11;100.00;97536.34;5041038;28;20096;-78
2023/11/10 06:34:18;;;;;;;0.90;0.55;;;;;;;7.10;100.00;97539.25;5045671;28;20030;-78
2023/11/10 06:36:44;;;;;;;0.90;0.60;;;;;;;7.02;100.00;97529.53;5036922;28;20025;-78
2023/11/10 06:39:09;;;;;;;2.92;0.43;;;;;;;6.84;100.00;97497.97;5041305;28;20032;-79
2023/11/10 06:41:34;;;;;;;1.15;0.50;;;;;;;6.87;100.00;97511.00;5042574;28;20053;-78
2023/11/10 06:43:59;;;;;;;1.10;0.30;;;;;;;7.05;100.00;97541.72;5041010;28;20033;-77
2023/11/10 06:46:26;;;;;;;1.98;0.47;;;;;;;6.89;100.00;97505.38;5037868;28;20021;-78
2023/11/10 06:48:52;;;;;;;1.88;0.50;;;;;;;7.01;100.00;97542.16;5050400;28;20032;-78
2023/11/10 06:51:18;;;;;;;0.90;0.35;;;;;;;7.06;100.00;97538.84;5041283;28;20088;-78
2023/11/10 06:53:44;;;;;;;1.73;0.70;;;;;;;7.01;100.00;97544.84;5038388;28;20035;-77
2023/11/10 06:56:12;;;;;;;2.22;0.60;;;;;;;6.93;100.00;97537.03;5036121;28;20017;-78
2023/11/10 06:58:39;;;;;;;1.33;0.60;;;;;;;6.93;100.00;97550.47;5040850;28;20036;-79
2023/11/10 07:01:06;;;;;;;1.75;0.52;;;;;;;7.01;100.00;97563.69;5040140;28;20035;-76
2023/11/10 07:03:31;;;;;;;1.73;0.60;;;;;;;6.89;100.00;97545.72;5041747;28;20071;-77
2023/11/10 07:05:58;;;;;;;2.72;1.20;;;;;;;6.88;100.00;97533.31;5016473;28;20075;-81
2023/11/10 07:08:25;;;;;;;6.53;2.42;;;;;;;7.11;100.00;97574.00;5024731;28;20346;-80
2023/11/10 07:10:57;;;;;;;4.07;1.65;;;;;;;7.05;100.00;97549.81;5024745;28;20342;-75
2023/11/10 07:13:23;;;;;;;2.42;1.40;;;;;;;7.21;100.00;97563.63;5021191;28;20342;-74
2023/11/10 07:15:48;;;;;;;2.03;1.20;;;;;;;7.11;100.00;97560.56;5028039;28;20084;-72
2023/11/10 07:18:14;;;;;;;2.38;0.90;;;;;;;7.18;100.00;97550.59;5017662;28;20045;-75
2023/11/10 07:20:44;;;;;;;0.63;0.35;;;;;;;7.17;100.00;97538.19;5024247;28;20108;-76
2023/11/10 07:23:10;;;;;;;1.20;0.40;;;;;;;7.20;100.00;97537.78;5018545;28;20084;-74
2023/11/10 07:25:35;;;;;;;1.38;0.80;;;;;;;7.34;100.00;97538.53;5023651;28;20375;-77
2023/11/10 07:28:01;;;;;;;0.90;0.40;;;;;;;7.65;100.00;97543.16;5021893;28;20037;-81
2023/11/10 07:30:28;;;;;;;2.80;0.60;;;;;;;7.89;100.00;97532.66;5022933;28;20037;-78
2023/11/10 07:32:54;;;;;;;0.73;0.50;;;;;;;8.07;100.00;97535.44;5021322;28;20064;-75
2023/11/10 07:35:21;;;;;;;0.40;0.20;;;;;;;8.06;100.00;97560.69;5014072;28;20065;-75
2023/11/10 07:37:46;;;;;;;2.10;0.20;;;;;;;7.85;100.00;97539.50;5023650;28;20025;-78
2023/11/10 07:40:13;;;;;;;0.70;0.28;;;;;;;7.84;100.00;97554.84;5027137;28;20266;-79
2023/11/10 07:42:42;;;;;;;1.55;0.50;;;;;;;8.01;100.00;97560.53;5015928;28;20026;-79
2023/11/10 07:45:14;;;;;;;0.10;0.10;;;;;;;7.77;100.00;97543.28;5021595;28;20048;-79
2023/11/10 07:47:44;;;;;;;0.25;0.22;;;;;;;7.69;100.00;97544.34;5023660;28;20145;-75
2023/11/10 07:50:10;;;;;;;0.45;0.13;;;;;;;7.74;100.00;97570.63;5021315;28;20028;-76
2023/11/10 07:52:38;;;;;;;1.95;0.30;;;;;;;7.55;100.00;97550.88;5021013;28;20034;-76
2023/11/10 07:55:04;;;;;;;0.57;0.40;;;;;;;7.81;100.00;97576.81;5021601;28;20018;-76
2023/11/10 07:57:30;;;;;;;0.98;0.20;;;;;;;7.68;100.00;97561.56;5029859;28;20030;-77
2023/11/10 07:59:55;;;;;;;0.22;0.17;;;;;;;7.83;100.00;97566.66;5020167;28;20219;-74
2023/11/10 08:02:21;;;;;;;0.30;0.13;;;;;;;7.97;100.00;97559.31;5020264;28;20037;-78
2023/11/10 08:04:47;;;;;;;0.00;0.00;;;;;;;8.05;100.00;97569.00;5029191;28;20339;-74
2023/11/10 08:07:12;;;;;;;0.60;0.28;;;;;;;7.93;100.00;97550.00;5024215;28;20040;-78
2023/11/10 08:09:38;;;;;;;0.98;0.30;;;;;;;7.91;100.00;97552.09;5033324;28;20379;-77
2023/11/10 08:12:04;;;;;;;0.30;0.20;;;;;;;7.95;100.00;97560.56;5024283;28;20029;-74
2023/11/10 08:14:29;;;;;;;0.82;0.40;;;;;;;7.96;100.00;97562.22;5026416;28;20097;-75
2023/11/10 08:16:55;;;;;;;2.60;0.70;;;;;;;7.91;100.00;97549.41;5024475;28;20204;-76
2023/11/10 08:19:20;;;;;;;3.70;1.08;;;;;;;8.03;100.00;97569.22;5023898;28;20052;-76
2023/11/10 08:21:45;;;;;;;1.50;0.85;;;;;;;8.15;100.00;97555.88;5027287;28;20072;-76
2023/11/10 08:24:11;;;;;;;2.65;0.75;;;;;;;8.39;100.00;97542.66;5032092;28;20025;-75
2023/11/10 08:26:38;;;;;;;0.77;0.50;;;;;;;8.67;100.00;97552.97;5018410;28;20327;-75
2023/11/10 08:29:04;;;;;;;1.38;0.70;;;;;;;8.66;100.00;97548.63;5024033;28;20025;-74
2023/11/10 08:31:29;;;;;;;1.48;0.80;;;;;;;8.74;100.00;97535.69;5021335;28;20022;-75
2023/11/10 08:33:54;;;;;;;2.53;0.60;;;;;;;8.88;100.00;97539.09;5025069;28;20274;-73
2023/11/10 08:36:22;;;;;;;1.23;0.60;;;;;;;9.05;100.00;97542.00;5025206;28;20025;-72
2023/11/10 08:38:48;;;;;;;1.65;0.50;;;;;;;8.85;100.00;97549.50;5024844;28;20029;-72
2023/11/10 08:41:14;;;;;;;1.15;0.40;;;;;;;8.90;100.00;97553.16;5025146;28;20331;-75
2023/11/10 08:43:41;;;;;;;1.23;0.30;;;;;;;8.81;100.00;97557.22;5035665;28;20043;-76
2023/11/10 08:46:07;;;;;;;1.52;0.40;;;;;;;8.64;100.00;97521.88;5022801;28;20029;-76
2023/11/10 08:48:32;;;;;;;1.15;0.50;;;;;;;8.95;100.00;97544.41;5029838;28;20377;-76
2023/11/10 08:50:58;;;;;;;0.68;0.40;;;;;;;9.09;100.00;97564.81;5024945;28;20029;-72
2023/11/10 08:53:23;;;;;;;2.00;0.80;;;;;;;9.02;100.00;97560.53;5024985;28;20022;-72
2023/11/10 08:55:49;;;;;;;0.60;0.35;;;;;;;8.95;100.00;97552.50;5021452;28;20022;-77
2023/11/10 08:58:14;;;;;;;1.77;0.43;;;;;;;8.89;100.00;97567.72;5023429;28;20196;-72
2023/11/10 09:00:40;;;;;;;1.20;0.50;;;;;;;8.87;100.00;97560.88;5037760;28;20029;-76
2023/11/10 09:03:06;;;;;;;1.45;0.95;;;;;;;8.69;100.00;97548.19;5010488;28;20054;-78
2023/11/10 09:05:31;;;;;;;0.98;0.43;;;;;;;8.69;100.00;97562.50;5028518;28;20036;-78
2023/11/10 09:07:57;;;;;;;1.27;0.40;;;;;;;8.90;100.00;97550.47;5044387;28;20025;-78
2023/11/10 09:10:23;;;;;;;2.58;0.50;;;;;;;9.25;100.00;97560.69;5024310;28;20397;-79
2023/11/10 09:12:49;;;;;;;1.23;0.60;;;;;;;9.32;100.00;97561.41;5022941;28;20021;-77
2023/11/10 09:15:15;;;;;;;1.48;0.57;;;;;;;9.28;100.00;97564.81;5021930;28;20045;-74
2023/11/10 09:17:41;;;;;;;0.85;0.60;;;;;;;8.90;100.00;97517.28;5019772;28;20429;-78
2023/11/10 09:20:07;;;;;;;0.77;0.45;;;;;;;9.40;100.00;97546.78;5024275;28;20022;-77
2023/11/10 09:22:35;;;;;;;1.90;0.30;;;;;;;9.87;100.00;97557.81;5023932;28;20032;-77
2023/11/10 09:25:01;;;;;;;0.77;0.52;;;;;;;10.72;100.00;97554.84;5013614;28;20029;-73
2023/11/10 09:27:27;;;;;;;3.35;0.80;;;;;;;11.25;100.00;97531.38;5024596;28;20255;-76
2023/11/10 09:29:52;;;;;;;3.78;0.68;;;;;;;11.24;100.00;97548.69;5024813;28;20034;-73
2023/11/10 09:32:17;;;;;;;1.25;0.63;;;;;;;11.71;100.00;97534.16;5029871;28;20034;-72
2023/11/10 09:34:42;;;;;;;1.65;0.65;;;;;;;12.44;100.00;97537.94;5027779;28;20021;-77
2023/11/10 09:37:09;;;;;;;2.05;0.60;;;;;;;12.40;100.00;97534.91;5024963;28;20091;-73
2023/11/10 09:39:35;;;;;;;1.55;0.60;;;;;;;11.01;100.00;97544.13;5025868;28;20025;-76
2023/11/10 09:42:08;;;;;;;2.60;0.65;;;;;;;10.25;100.00;97549.34;5036647;28;20218;-76
2023/11/10 09:44:40;;;;;;;1.65;0.70;;;;;;;9.98;100.00;97556.19;5023375;28;20032;-78
2023/11/10 09:47:08;;;;;;;2.15;0.40;;;;;;;10.10;100.00;97552.47;5023601;28;20327;-78
2023/11/10 09:49:34;;;;;;;2.15;0.70;;;;;;;10.90;100.00;97550.38;5025832;28;20373;-78
2023/11/10 09:52:02;;;;;;;1.50;0.50;;;;;;;11.31;100.00;97543.13;5022768;28;20034;-75
2023/11/10 09:54:29;;;;;;;1.88;0.50;;;;;;;13.74;100.00;97524.81;5022396;28;20315;-71
2023/11/10 09:56:56;;;;;;;1.65;0.80;;;;;;;14.95;100.00;97532.69;5023687;28;20021;-71
2023/11/10 09:59:27;;;;;;;1.88;0.60;;;;;;;17.04;100.00;97535.94;5021490;28;20032;-72
2023/11/10 10:01:52;;;;;;;0.68;0.20;;;;;;;17.98;94.22;97518.91;5023267;28;20318;-74
2023/11/10 10:04:18;;;;;;;0.57;0.22;;;;;;;17.14;92.15;97518.69;5017892;28;20037;-74
2023/11/10 10:06:50;;;;;;;0.95;0.45;;;;;;;18.00;82.62;97510.41;5023707;28;20346;-75
2023/11/10 10:09:16;;;;;;;1.15;0.50;;;;;;;19.51;77.57;97505.75;5024059;28;20022;-73
2023/11/10 10:11:42;;;;;;;1.77;0.20;;;;;;;20.08;68.60;97498.44;5023580;28;20072;-74
2023/11/10 10:14:07;;;;;;;1.23;0.30;;;;;;;18.61;71.60;97513.53;5022350;28;20022;-74
2023/11/10 10:16:33;;;;;;;1.80;0.30;;;;;;;18.62;70.18;97509.66;5023043;28;20259;-77
2023/11/10 10:18:59;;;;;;;1.08;0.52;;;;;;;18.05;70.17;97497.53;5023096;28;20026;-75
2023/11/10 10:21:24;;;;;;;1.58;0.28;;;;;;;20.00;65.18;97481.81;5022127;28;20096;-76
2023/11/10 10:23:50;;;;;;;2.30;0.22;;;;;;;19.92;65.31;97481.38;5023844;28;20223;-75
2023/11/10 10:26:16;;;;;;;0.63;0.22;;;;;;;20.50;59.81;97484.88;5022978;28;20029;-75
2023/11/10 10:28:43;;;;;;;1.58;0.20;;;;;;;21.81;58.55;97481.88;5025381;28;20025;-76
2023/11/10 10:31:11;;;;;;;2.20;0.30;;;;;;;22.31;56.16;97471.66;5020171;28;20060;-76
2023/11/10 10:33:36;;;;;;;1.08;0.30;;;;;;;21.40;55.59;97479.97;5019988;28;20025;-75
2023/11/10 10:36:03;;;;;;;0.32;0.20;;;;;;;21.36;57.46;97474.25;5022762;28;20064;-74
2023/11/10 10:38:31;;;;;;;0.52;0.35;;;;;;;20.84;57.20;97470.84;5024628;28;20311;-74
2023/11/10 10:40:59;;;;;;;1.38;0.22;;;;;;;20.02;58.21;97479.59;5025741;28;20041;-74
2023/11/10 10:43:27;;;;;;;4.63;0.20;;;;;;;19.36;57.46;97484.84;5019794;28;20061;-72
2023/11/10 10:45:53;;;;;;;1.40;0.30;;;;;;;20.21;55.48;97452.13;5014209;28;20021;-71
2023/11/10 10:48:19;;;;;;;1.23;0.20;;;;;;;21.01;56.04;97473.00;5022148;28;20244;-71
2023/11/10 10:50:45;;;;;;;0.52;0.20;;;;;;;22.03;54.10;97486.63;5020472;28;20022;-71
2023/11/10 10:53:13;;;;;;;0.77;0.10;;;;;;;18.94;58.73;97485.56;5021363;28;20038;-71
2023/11/10 10:55:42;;;;;;;1.00;0.30;;;;;;;16.44;66.88;97474.78;5018794;28;20084;-71
2023/11/10 10:58:10;;;;;;;0.75;0.50;;;;;;;14.68;81.40;97501.72;5017193;28;20319;-70
2023/11/10 11:00:36;;;;;;;1.27;0.10;;;;;;;15.70;79.15;97489.72;5018153;28;20036;-71
2023/11/10 11:03:29;;;;;;;0.40;0.10;;;;;;;16.36;71.60;97487.06;5020982;28;20284;-71
2023/11/10 11:06:12;;;;;;;0.95;0.28;;;;;;;15.83;78.37;97472.03;5021969;28;20231;-71
2023/11/10 11:09:10;;;;;;;1.80;0.20;;;;;;;15.38;78.44;97474.34;5017905;28;20026;-71
2023/11/10 11:11:35;;;;;;;0.90;0.65;;;;;;;14.56;84.62;97473.88;5017690;28;20099;-71
2023/11/10 11:14:34;;;;;;;0.32;0.10;;;;;;;17.93;69.11;97465.03;5021893;28;20025;-74
2023/11/10 11:17:14;;;;;;;1.58;0.20;;;;;;;20.67;58.55;97446.72;5016233;28;20022;-73
2023/11/10 11:19:40;;;;;;;1.38;0.30;;;;;;;20.86;55.79;97434.81;5013553;28;20033;-72
2023/11/10 11:22:07;;;;;;;1.10;0.20;;;;;;;21.45;54.19;97438.59;5018471;28;20026;-72
2023/11/10 11:24:33;;;;;;;2.78;0.28;;;;;;;21.17;54.34;97443.31;5020986;28;20037;-73
2023/11/10 11:27:00;;;;;;;1.15;0.28;;;;;;;18.31;58.23;97448.03;5021462;28;20222;-72
2023/11/10 11:29:34;;;;;;;0.98;0.30;;;;;;;16.59;60.95;97438.47;5005861;28;20045;-72